Time;durP1;ratioP1;P1;durP2;ratioP2;P2;SDS_P1;SDS_P2;PMS_P1;PMS_P2;Temp;Humidity;BMP_temperature;BMP_pressure;BME280_temperature;BME280_humidity;BME280_pressure;Samples;Min_cycle;Max_cycle;Signal;HPM_P1;HPM_P2
2023/02/17 00:04:52;;;;;;;51.60;30.60;;;;;;;5.65;58.86;99605.20;234962;1199;138447;-69
2023/02/17 00:10:58;;;;;;;56.60;32.50;;;;;;;5.65;59.05;99599.77;235080;1194;138730;-71
2023/02/17 00:16:52;;;;;;;;;;;;;;;;;;;;;
2023/02/17 00:22:52;;;;;;;58.20;31.70;;;;;;;5.64;59.15;99599.97;235184;1193;138158;-75
2023/02/17 00:35:00;;;;;;;52.80;30.80;;;;;;;5.36;59.48;99600.70;235080;1196;138754;-72
2023/02/17 00:41:26;;;;;;;54.90;31.90;;;;;;;5.31;59.67;99597.87;235104;1194;138803;-71
2023/02/17 00:54:58;;;;;;;51.40;29.90;;;;;;;5.06;60.06;99583.69;234880;1195;138055;-70
2023/02/17 01:00:40;;;;;;;;;;;;;;;;;;;;;
2023/02/17 01:06:45;;;;;;;58.90;33.20;;;;;;;4.81;60.90;99574.09;235139;1194;138478;-70
2023/02/17 01:12:55;;;;;;;59.10;33.70;;;;;;;4.89;61.02;99572.27;235004;1196;138659;-69
2023/02/17 01:25:12;;;;;;;52.70;32.20;;;;;;;5.06;60.75;99546.77;234804;1198;138808;-70
2023/02/17 01:30:34;;;;;;;55.00;32.40;;;;;;;5.11;61.10;99543.11;234929;1195;138529;-70
2023/02/17 01:44:19;;;;;;;;;;;;;;;;;;;;;
2023/02/17 01:49:43;;;;;;;54.00;30.50;;;;;;;5.00;60.84;99511.80;234622;1197;138848;-72
2023/02/17 01:56:24;;;;;;;;;;;;;;;;;;;;;
2023/02/17 02:02:35;;;;;;;;;;;;;;;;;;;;;
2023/02/17 02:14:55;;;;;;;57.60;32.80;;;;;;;5.24;61.15;99490.45;234471;1204;124446;-73
2023/02/17 02:22:33;;;;;;;;;;;;;;;;;;;;;
2023/02/17 02:35:46;;;;;;;54.40;31.60;;;;;;;5.30;60.92;99494.45;234539;1200;138293;-76
2023/02/17 02:41:35;;;;;;;49.60;30.70;;;;;;;5.31;61.20;99493.40;235008;1196;138467;-69
2023/02/17 02:48:02;;;;;;;52.90;30.90;;;;;;;5.34;61.06;99488.70;234955;1196;138994;-69
2023/02/17 03:16:17;;;;;;;;;;;;;;;;;;;;;
2023/02/17 03:29:32;;;;;;;;;;;;;;;;;;;;;
2023/02/17 03:34:59;;;;;;;47.30;27.10;;;;;;;5.91;59.85;99478.45;234941;1196;138985;-67
2023/02/17 03:41:19;;;;;;;;;;;;;;;;;;;;;
2023/02/17 03:47:08;;;;;;;;;;;;;;;;;;;;;
2023/02/17 03:53:06;;;;;;;113.20;69.40;;;;;;;5.98;59.21;99469.63;235028;1199;139050;-67
2023/02/17 04:05:49;;;;;;;42.30;26.40;;;;;;;5.90;59.13;99461.59;234843;1196;138156;-70
2023/02/17 04:12:16;;;;;;;190.70;123.90;;;;;;;5.91;59.57;99456.96;234835;1199;138533;-69
2023/02/17 04:24:14;;;;;;;42.40;25.00;;;;;;;6.04;58.84;99447.55;235052;1196;139628;-69
2023/02/17 04:37:22;;;;;;;41.30;24.80;;;;;;;5.89;59.04;99452.98;235088;1196;138078;-68
2023/02/17 04:43:35;;;;;;;40.40;24.30;;;;;;;5.91;59.10;99436.55;235034;1194;138005;-69
2023/02/17 04:49:20;;;;;;;40.00;24.40;;;;;;;6.05;58.85;99434.30;234927;1196;138500;-69
2023/02/17 04:55:26;;;;;;;40.30;24.50;;;;;;;6.19;59.21;99430.07;234977;1195;137977;-70
2023/02/17 05:00:49;;;;;;;40.60;24.10;;;;;;;6.30;58.10;99430.87;234968;1195;138497;-70
2023/02/17 05:06:17;;;;;;;37.80;22.90;;;;;;;6.35;57.83;99438.63;235055;1196;139274;-67
2023/02/17 05:13:00;;;;;;;;;;;;;;;;;;;;;
2023/02/17 05:18:58;;;;;;;;;;;;;;;;;;;;;
2023/02/17 05:51:45;;;;;;;38.50;23.10;;;;;;;6.57;56.82;99426.33;234988;1194;137881;-69
2023/02/17 05:57:29;;;;;;;37.30;22.50;;;;;;;6.67;56.44;99422.02;235289;1196;138691;-70
2023/02/17 06:03:49;;;;;;;;;;;;;;;;;;;;;
2023/02/17 06:09:42;;;;;;;;;;;;;;;;;;;;;
2023/02/17 06:15:34;;;;;;;;;;;;;;;;;;;;;
2023/02/17 06:22:03;;;;;;;;;;;;;;;;;;;;;
2023/02/17 06:28:12;;;;;;;43.60;23.60;;;;;;;7.06;55.37;99384.62;234959;1196;138954;-67
2023/02/17 06:34:36;;;;;;;37.90;22.60;;;;;;;7.09;55.13;99373.02;234953;1196;138204;-67
2023/02/17 06:40:03;;;;;;;40.30;22.90;;;;;;;7.11;55.10;99370.46;234922;1195;139346;-66
2023/02/17 06:46:45;;;;;;;42.90;23.30;;;;;;;7.13;55.32;99370.91;234910;1196;138321;-68
2023/02/17 06:59:16;;;;;;;41.30;24.20;;;;;;;7.13;55.10;99379.75;234949;1195;138595;-70
2023/02/17 07:05:30;;;;;;;;;;;;;;;;;;;;;
2023/02/17 07:11:13;;;;;;;37.10;21.90;;;;;;;7.27;55.12;99392.58;234876;1195;138102;-70
2023/02/17 07:16:43;;;;;;;41.80;23.00;;;;;;;7.36;55.04;99397.14;235082;1196;138436;-69
2023/02/17 07:22:11;;;;;;;;;;;;;;;;;;;;;
2023/02/17 07:27:29;;;;;;;35.10;21.30;;;;;;;7.44;54.92;99402.26;232354;1196;138981;-69
2023/02/17 07:33:29;;;;;;;35.40;19.90;;;;;;;7.48;55.07;99396.80;233347;1194;138677;-71
2023/02/17 07:38:57;;;;;;;30.80;20.10;;;;;;;7.62;54.94;99392.79;235097;1194;138614;-70
2023/02/17 07:45:02;;;;;;;30.00;19.10;;;;;;;7.77;54.95;99392.31;235097;1195;138945;-68
2023/02/17 07:50:50;;;;;;;33.10;20.40;;;;;;;7.93;54.66;99383.81;235064;1194;138697;-70
2023/02/17 07:56:32;;;;;;;46.40;20.50;;;;;;;8.08;54.34;99370.06;234950;1196;139535;-69
2023/02/17 08:02:56;;;;;;;40.10;21.00;;;;;;;8.16;54.29;99360.50;235129;1195;138911;-70
2023/02/17 08:36:28;;;;;;;;;;;;;;;;;;;;;
2023/02/17 08:43:50;;;;;;;37.60;20.00;;;;;;;8.71;53.51;99336.80;231447;1205;137811;-68
2023/02/17 08:50:37;;;;;;;37.20;19.20;;;;;;;8.84;53.53;99322.04;233637;1202;138317;-66
2023/02/17 08:56:05;;;;;;;;;;;;;;;;;;;;;
2023/02/17 09:23:29;;;;;;;;;;;;;;;;;;;;;
2023/02/17 09:29:16;;;;;;;35.90;18.30;;;;;;;9.63;53.80;99283.35;234595;1198;138934;-66
2023/02/17 09:35:27;;;;;;;32.30;18.60;;;;;;;9.67;54.06;99287.21;234742;1199;138611;-66
2023/02/17 09:41:54;;;;;;;;;;;;;;;;;;;;;
2023/02/17 09:55:35;;;;;;;;;;;;;;;;;;;;;
2023/02/17 10:03:15;;;;;;;30.40;17.90;;;;;;;9.80;56.19;99254.25;234983;1196;138617;-70
2023/02/17 10:08:31;;;;;;;27.10;17.30;;;;;;;9.85;56.39;99255.91;234398;1201;138657;-73
2023/02/17 10:13:59;;;;;;;30.00;18.20;;;;;;;9.91;56.38;99252.02;234704;1199;138894;-65
2023/02/17 10:19:43;;;;;;;29.70;18.20;;;;;;;9.97;56.62;99240.17;229691;1211;635827;-72
2023/02/17 10:24:48;;;;;;;28.40;17.50;;;;;;;10.02;56.50;99238.85;230869;1199;137795;-72
2023/02/17 10:30:25;;;;;;;51.40;33.40;;;;;;;10.02;56.39;99231.05;230223;1198;140411;-74
2023/02/17 10:35:30;;;;;;;29.90;19.70;;;;;;;9.98;56.61;99224.90;232075;1196;138207;-73
2023/02/17 10:40:34;;;;;;;33.20;19.70;;;;;;;9.92;57.08;99218.64;231504;1196;138047;-71
2023/02/17 10:45:44;;;;;;;30.80;19.80;;;;;;;9.90;57.61;99210.77;229412;1197;137570;-74
2023/02/17 10:50:49;;;;;;;31.00;17.60;;;;;;;9.90;57.79;99202.96;230753;1199;138727;-73
2023/02/17 10:56:05;;;;;;;31.90;19.20;;;;;;;9.88;58.43;99187.73;228737;1200;140035;-73
2023/02/17 11:01:12;;;;;;;33.40;17.80;;;;;;;9.90;58.74;99179.80;233784;1199;137948;-72
2023/02/17 11:06:21;;;;;;;22.70;14.40;;;;;;;9.96;58.83;99172.05;232520;1199;138437;-74
2023/02/17 11:11:31;;;;;;;28.50;15.50;;;;;;;10.01;59.17;99168.39;232762;1195;137990;-73
2023/02/17 11:16:44;;;;;;;22.30;14.90;;;;;;;10.01;59.62;99155.81;231904;1196;139073;-77
2023/02/17 11:21:54;;;;;;;27.50;13.90;;;;;;;10.00;60.15;99148.56;230281;1199;138852;-73
2023/02/17 11:27:02;;;;;;;24.10;13.50;;;;;;;9.99;60.85;99146.86;230426;1199;138679;-71
2023/02/17 11:32:11;;;;;;;24.00;15.00;;;;;;;9.93;60.77;99142.38;230304;1199;138857;-71
2023/02/17 11:37:19;;;;;;;23.70;13.60;;;;;;;9.98;60.90;99139.28;231290;1199;138931;-71
2023/02/17 11:42:30;;;;;;;22.20;13.40;;;;;;;10.04;60.77;99136.45;234354;1196;138285;-72
2023/02/17 11:47:56;;;;;;;23.40;12.90;;;;;;;10.08;60.95;99140.63;231006;1197;138357;-71
2023/02/17 11:53:24;;;;;;;17.60;12.00;;;;;;;10.06;61.20;99125.55;234317;1196;138686;-72
2023/02/17 11:58:50;;;;;;;15.80;10.70;;;;;;;9.98;61.16;99105.98;230685;1199;138731;-73
2023/02/17 12:04:24;;;;;;;17.50;11.30;;;;;;;9.88;61.68;99095.75;229779;1199;138963;-73
2023/02/17 12:09:32;;;;;;;17.90;11.00;;;;;;;9.80;61.77;99087.35;228974;1209;138788;-71
2023/02/17 12:14:43;;;;;;;17.30;10.60;;;;;;;9.74;62.10;99082.75;229376;1199;138945;-71
2023/02/17 12:20:06;;;;;;;17.00;9.80;;;;;;;9.66;62.48;99079.45;228533;1199;139386;-71
2023/02/17 12:25:17;;;;;;;14.20;9.20;;;;;;;9.70;62.81;99078.15;229150;1199;138830;-70
2023/02/17 12:30:33;;;;;;;16.10;8.90;;;;;;;9.77;62.52;99074.79;230268;1196;139481;-70
2023/02/17 12:36:01;;;;;;;12.90;8.50;;;;;;;9.76;62.43;99076.05;229054;1201;138338;-71
2023/02/17 12:41:33;;;;;;;13.50;8.70;;;;;;;9.79;62.16;99077.48;229644;1199;138521;-69
2023/02/17 12:46:41;;;;;;;14.90;8.70;;;;;;;9.77;62.47;99071.95;229386;1201;138458;-72
2023/02/17 12:51:50;;;;;;;10.40;7.50;;;;;;;9.76;62.35;99063.50;228892;1196;138597;-69
2023/02/17 12:57:20;;;;;;;12.60;7.40;;;;;;;9.72;62.48;99053.96;230725;1196;137947;-71
2023/02/17 13:02:25;;;;;;;12.10;7.60;;;;;;;9.72;62.35;99053.61;230367;1197;137950;-68
2023/02/17 13:07:56;;;;;;;11.80;6.90;;;;;;;9.78;62.24;99044.41;230601;1197;138386;-69
2023/02/17 13:13:27;;;;;;;12.50;7.80;;;;;;;9.83;62.12;99040.06;229361;1198;138316;-70
2023/02/17 13:18:36;;;;;;;11.30;6.80;;;;;;;9.88;62.28;99028.44;229904;1197;138268;-70
2023/02/17 13:23:44;;;;;;;11.60;7.20;;;;;;;9.94;62.45;99019.73;229855;1199;140275;-70
2023/02/17 13:28:50;;;;;;;11.20;6.70;;;;;;;9.96;61.89;99012.16;230808;1198;138724;-69
2023/02/17 13:33:58;;;;;;;9.80;6.50;;;;;;;9.99;61.84;99006.13;231169;1196;138287;-72
2023/02/17 13:39:25;;;;;;;8.90;6.40;;;;;;;10.04;61.89;99006.56;229850;1199;137973;-70
2023/02/17 13:44:38;;;;;;;11.30;7.20;;;;;;;10.03;61.84;98992.63;230439;1193;137932;-70
2023/02/17 13:49:52;;;;;;;9.50;6.60;;;;;;;10.04;61.98;98986.33;229620;1199;138654;-70
2023/02/17 13:55:05;;;;;;;14.40;7.30;;;;;;;10.02;61.68;98978.83;230236;1193;138891;-69
2023/02/17 14:00:18;;;;;;;189.80;121.40;;;;;;;10.00;62.03;98976.14;232542;1196;138479;-70
2023/02/17 14:05:32;;;;;;;13.80;8.10;;;;;;;10.03;62.08;98959.45;233527;1197;138610;-69
2023/02/17 14:11:10;;;;;;;10.50;6.60;;;;;;;10.06;61.85;98948.83;234896;1193;141434;-69
2023/02/17 14:16:32;;;;;;;8.60;5.50;;;;;;;10.09;61.63;98944.02;230182;1197;138538;-70
2023/02/17 14:21:44;;;;;;;8.60;6.20;;;;;;;10.12;61.74;98934.23;231032;1196;138176;-68
2023/02/17 14:26:48;;;;;;;8.80;5.80;;;;;;;10.15;61.53;98925.58;230318;1195;138991;-69
2023/02/17 14:31:55;;;;;;;10.70;6.20;;;;;;;10.14;61.50;98919.02;230822;1196;137953;-68
2023/02/17 14:37:17;;;;;;;8.20;6.30;;;;;;;10.15;61.80;98920.41;232336;1196;138283;-70
2023/02/17 14:42:22;;;;;;;9.10;6.10;;;;;;;10.17;61.83;98911.41;230765;1199;138342;-70
2023/02/17 14:47:26;;;;;;;10.70;6.20;;;;;;;10.14;61.51;98898.83;230182;1194;138503;-69
2023/02/17 14:52:31;;;;;;;8.90;6.00;;;;;;;10.12;61.52;98892.73;230580;1196;139068;-68
2023/02/17 14:57:36;;;;;;;8.70;6.20;;;;;;;10.13;61.43;98883.33;232073;1196;138370;-68
2023/02/17 15:02:40;;;;;;;8.00;5.30;;;;;;;10.12;61.72;98876.42;231182;1195;138516;-69
2023/02/17 15:07:45;;;;;;;12.10;5.80;;;;;;;10.13;61.63;98872.31;233603;1196;138187;-68
2023/02/17 15:12:49;;;;;;;7.60;5.30;;;;;;;10.12;61.61;98866.70;230057;1199;138720;-68
2023/02/17 15:17:55;;;;;;;6.90;5.10;;;;;;;10.17;62.07;98864.80;229508;1195;139202;-71
2023/02/17 15:22:58;;;;;;;8.80;5.90;;;;;;;10.18;61.98;98856.60;230228;1199;138469;-69
2023/02/17 15:28:04;;;;;;;8.90;6.10;;;;;;;10.09;62.66;98850.60;233898;1193;138430;-69
2023/02/17 15:33:14;;;;;;;8.70;6.00;;;;;;;9.94;63.05;98845.85;232670;1199;138124;-71
2023/02/17 15:38:19;;;;;;;9.40;6.10;;;;;;;9.81;64.05;98840.30;232046;1196;137816;-69
2023/02/17 15:43:34;;;;;;;7.80;5.70;;;;;;;9.65;64.61;98821.45;230523;1194;139151;-71
2023/02/17 15:48:49;;;;;;;8.70;5.70;;;;;;;9.52;65.37;98813.59;230074;1195;139243;-71
2023/02/17 16:09:32;;;;;;;7.30;5.10;;;;;;;9.26;66.54;98762.59;229351;1197;108835;-66
2023/02/17 16:14:38;;;;;;;7.40;4.60;;;;;;;9.25;66.43;98755.35;229817;1196;138447;-72
2023/02/17 16:19:42;;;;;;;7.60;4.80;;;;;;;9.26;66.50;98751.78;229583;1193;139245;-71
2023/02/17 16:24:46;;;;;;;7.10;4.00;;;;;;;9.26;66.60;98746.27;234108;1193;138468;-70
2023/02/17 16:29:50;;;;;;;6.60;3.90;;;;;;;9.22;66.57;98743.49;229438;1198;138675;-71
2023/02/17 16:34:53;;;;;;;6.20;4.20;;;;;;;9.22;66.79;98729.38;229507;1195;138771;-71
2023/02/17 16:39:57;;;;;;;5.40;3.70;;;;;;;9.26;66.97;98725.04;229290;1193;139535;-72
2023/02/17 16:45:01;;;;;;;5.70;3.90;;;;;;;9.34;66.80;98722.26;229800;1193;138421;-70
2023/02/17 16:50:07;;;;;;;5.30;3.80;;;;;;;9.36;66.63;98720.71;229918;1192;138644;-71
2023/02/17 16:55:18;;;;;;;6.40;4.30;;;;;;;9.38;66.81;98714.77;234590;1193;139119;-71
2023/02/17 17:00:26;;;;;;;4.90;3.80;;;;;;;9.35;66.48;98710.70;233086;1192;138372;-71
2023/02/17 17:05:30;;;;;;;6.20;3.90;;;;;;;9.30;66.53;98704.61;232105;1196;138058;-72
2023/02/17 17:10:35;;;;;;;6.10;4.00;;;;;;;9.33;66.79;98696.48;229981;1196;138827;-71
2023/02/17 17:15:43;;;;;;;7.80;4.80;;;;;;;9.35;66.81;98679.73;231480;1194;138337;-70
2023/02/17 17:20:47;;;;;;;6.70;4.50;;;;;;;9.32;67.06;98676.02;231260;1196;138102;-72
2023/02/17 17:25:50;;;;;;;6.90;4.70;;;;;;;9.28;66.95;98678.20;230654;1192;138038;-71
2023/02/17 17:30:54;;;;;;;7.30;4.80;;;;;;;9.29;66.99;98680.27;230790;1192;138955;-70
2023/02/17 17:35:57;;;;;;;8.10;4.80;;;;;;;9.31;67.08;98684.21;229395;1196;139016;-72
2023/02/17 17:41:01;;;;;;;10.30;5.40;;;;;;;9.33;66.90;98666.41;231951;1193;138761;-70
2023/02/17 17:46:16;;;;;;;6.20;4.20;;;;;;;9.36;67.00;98650.63;231086;1196;138984;-71
2023/02/17 17:51:21;;;;;;;8.40;4.60;;;;;;;9.39;67.02;98643.13;232126;1193;138610;-71
2023/02/17 17:56:28;;;;;;;6.40;4.70;;;;;;;9.45;66.81;98632.70;229765;1196;138887;-71
2023/02/17 18:01:32;;;;;;;6.90;4.60;;;;;;;9.51;66.58;98620.62;229177;1196;139059;-71
2023/02/17 18:06:39;;;;;;;6.70;4.50;;;;;;;9.57;66.30;98618.45;229932;1193;138908;-71
2023/02/17 18:11:43;;;;;;;7.30;4.30;;;;;;;9.59;66.44;98619.73;231844;1193;138185;-71
2023/02/17 18:16:48;;;;;;;9.70;5.00;;;;;;;9.63;66.61;98632.41;229802;1196;138519;-71
2023/02/17 18:21:51;;;;;;;7.00;4.30;;;;;;;9.71;66.52;98641.11;230837;1196;140022;-71
2023/02/17 18:26:55;;;;;;;30.00;18.90;;;;;;;9.79;66.33;98629.27;229136;1196;138382;-72
2023/02/17 18:31:59;;;;;;;8.20;5.00;;;;;;;9.86;66.32;98623.13;229791;1196;138779;-70
2023/02/17 18:37:03;;;;;;;7.50;4.90;;;;;;;9.95;66.50;98625.38;231361;1196;138029;-71
2023/02/17 18:42:09;;;;;;;9.40;5.30;;;;;;;9.95;66.56;98615.42;231057;1193;138521;-72
2023/02/17 18:47:13;;;;;;;7.10;4.70;;;;;;;10.01;66.87;98621.90;230557;1196;139408;-72
2023/02/17 18:52:17;;;;;;;8.40;4.90;;;;;;;10.12;67.92;98619.61;229196;1193;138723;-70
2023/02/17 18:57:22;;;;;;;6.90;4.50;;;;;;;10.22;68.12;98607.26;230756;1193;138955;-68
2023/02/17 19:02:27;;;;;;;7.70;4.60;;;;;;;10.27;68.17;98603.19;230317;1196;138454;-71
2023/02/17 19:07:31;;;;;;;17.50;12.00;;;;;;;10.29;68.87;98611.95;230270;1196;139246;-69
2023/02/17 19:12:36;;;;;;;7.70;4.20;;;;;;;10.37;69.72;98609.28;229835;1196;139907;-70
2023/02/17 19:17:47;;;;;;;7.60;4.50;;;;;;;10.56;69.14;98618.23;229956;1193;138893;-71
2023/02/17 19:23:26;;;;;;;6.60;4.50;;;;;;;10.63;69.18;98612.09;230032;1196;138981;-70
2023/02/17 19:28:30;;;;;;;54.50;42.20;;;;;;;10.69;68.66;98613.83;229640;1196;139955;-72
2023/02/17 19:33:34;;;;;;;10.60;5.70;;;;;;;10.75;68.74;98610.88;231512;1192;139096;-70
2023/02/17 19:38:38;;;;;;;7.60;5.00;;;;;;;10.80;68.52;98604.55;229708;1196;139019;-70
2023/02/17 19:43:43;;;;;;;8.30;4.80;;;;;;;10.86;67.95;98607.64;229104;1196;139827;-70
2023/02/17 19:48:55;;;;;;;65.50;45.30;;;;;;;10.94;68.24;98610.83;229407;1196;138910;-72
2023/02/17 19:54:01;;;;;;;8.20;5.20;;;;;;;10.92;68.68;98616.48;230714;1194;138846;-72
2023/02/17 19:59:05;;;;;;;8.00;5.20;;;;;;;10.87;68.98;98610.98;229150;1196;138693;-71
2023/02/17 20:04:08;;;;;;;9.60;5.20;;;;;;;10.85;69.22;98616.95;229735;1195;139462;-73
2023/02/17 20:17:21;;;;;;;6.40;4.90;;;;;;;10.83;70.34;98636.62;230087;1193;108989;-72
2023/02/17 20:22:28;;;;;;;;;;;;;;;10.76;70.75;98635.87;230979;1196;138907;-71
2023/02/17 20:28:19;;;;;;;12.20;5.10;;;;;;;10.80;71.57;98624.58;229436;1199;113195;-70
2023/02/17 20:33:25;;;;;;;9.20;5.10;;;;;;;10.81;71.73;98616.52;230306;1196;138572;-73
2023/02/17 20:38:29;;;;;;;7.60;5.40;;;;;;;10.79;71.40;98613.11;229537;1199;137711;-73
2023/02/17 20:43:33;;;;;;;7.90;4.90;;;;;;;10.76;71.69;98614.02;232589;1193;138891;-70
2023/02/17 20:48:37;;;;;;;8.90;5.40;;;;;;;10.76;71.80;98620.04;232691;1193;138975;-69
2023/02/17 20:53:41;;;;;;;10.60;5.10;;;;;;;10.83;71.71;98625.74;233064;1193;139041;-71
2023/02/17 20:58:45;;;;;;;8.80;5.40;;;;;;;10.87;71.26;98626.23;229373;1194;138531;-70
2023/02/17 21:03:49;;;;;;;7.90;4.90;;;;;;;10.84;71.35;98619.51;232756;1193;138678;-70
2023/02/17 21:08:55;;;;;;;8.30;5.00;;;;;;;10.87;71.25;98615.23;230575;1193;139517;-70
2023/02/17 21:13:59;;;;;;;7.10;5.20;;;;;;;10.99;71.11;98600.54;233767;1197;139490;-70
2023/02/17 21:19:03;;;;;;;8.80;4.70;;;;;;;11.06;70.59;98595.57;232967;1193;138865;-71
2023/02/17 21:24:07;;;;;;;7.40;5.30;;;;;;;11.06;70.30;98598.21;232887;1196;138628;-70
2023/02/17 21:29:10;;;;;;;7.10;4.60;;;;;;;11.07;70.07;98607.43;229205;1193;138815;-71
2023/02/17 21:34:14;;;;;;;8.40;4.60;;;;;;;11.14;69.79;98609.42;231774;1193;140444;-71
2023/02/17 21:39:18;;;;;;;9.50;4.40;;;;;;;11.20;69.52;98599.72;233469;1193;138706;-71
2023/02/17 21:49:43;;;;;;;10.10;4.50;;;;;;;11.26;69.28;98580.30;233675;1196;138553;-72
2023/02/17 21:54:47;;;;;;;8.00;4.50;;;;;;;11.32;68.68;98575.41;230772;1193;138475;-73
2023/02/17 21:59:51;;;;;;;6.90;4.20;;;;;;;11.34;68.75;98571.02;231380;1193;139435;-72
2023/02/17 22:04:57;;;;;;;7.10;4.30;;;;;;;11.35;68.73;98581.04;229800;1193;139823;-71
2023/02/17 22:10:02;;;;;;;9.50;4.40;;;;;;;11.41;68.46;98572.10;233113;1193;139065;-72
2023/02/17 22:15:06;;;;;;;6.20;3.70;;;;;;;11.49;68.59;98570.51;230949;1193;139219;-71
2023/02/17 22:20:11;;;;;;;5.50;3.70;;;;;;;11.48;68.59;98560.98;230996;1193;139077;-73
2023/02/17 22:25:14;;;;;;;5.10;3.10;;;;;;;11.47;68.45;98558.86;230889;1196;138585;-70
2023/02/17 22:30:17;;;;;;;5.10;3.20;;;;;;;11.48;68.71;98536.63;231989;1196;139023;-69
2023/02/17 22:35:21;;;;;;;6.20;3.60;;;;;;;11.45;68.37;98547.81;231923;1194;140073;-70
2023/02/17 22:40:25;;;;;;;6.50;3.50;;;;;;;11.51;68.72;98558.08;230371;1193;139044;-70
2023/02/17 22:45:29;;;;;;;5.30;3.10;;;;;;;11.62;69.29;98569.33;233727;1192;138347;-71
2023/02/17 22:50:33;;;;;;;4.40;3.20;;;;;;;11.62;69.25;98578.93;229317;1198;139211;-70
2023/02/17 22:55:36;;;;;;;7.40;3.70;;;;;;;11.54;69.53;98575.79;233204;1193;138386;-72
2023/02/17 23:00:40;;;;;;;6.60;3.10;;;;;;;11.49;69.60;98572.92;234519;1192;139541;-70
2023/02/17 23:05:45;;;;;;;4.30;3.10;;;;;;;11.53;69.35;98544.20;231031;1197;138817;-70
2023/02/17 23:10:49;;;;;;;4.60;3.10;;;;;;;11.62;68.37;98525.45;233727;1193;139015;-72
2023/02/17 23:15:52;;;;;;;3.90;2.40;;;;;;;11.67;67.75;98527.05;231353;1192;138392;-71
2023/02/17 23:20:57;;;;;;;4.40;2.60;;;;;;;11.69;67.13;98530.80;231265;1196;138302;-73
2023/02/17 23:26:01;;;;;;;4.20;2.70;;;;;;;11.68;66.80;98547.41;229879;1196;138205;-72
2023/02/17 23:31:09;;;;;;;5.50;2.50;;;;;;;11.71;66.64;98554.94;230430;1194;141135;-72
2023/02/17 23:36:13;;;;;;;4.40;2.70;;;;;;;11.80;66.17;98559.30;230967;1193;139334;-73
2023/02/17 23:41:17;;;;;;;4.30;3.00;;;;;;;11.84;65.81;98568.80;230160;1197;138129;-72
2023/02/17 23:46:21;;;;;;;3.40;2.80;;;;;;;11.83;65.73;98578.40;230643;1193;138716;-73
2023/02/17 23:51:25;;;;;;;4.10;2.90;;;;;;;11.83;65.70;98578.08;229649;1196;138287;-72
2023/02/17 23:56:34;;;;;;;4.10;2.50;;;;;;;11.76;66.73;98574.36;230593;1196;139323;-70
